San Miguel, Colorado
Current Conditions -  °F | °C
As of 1:52 AM on Wednesday 26 Nov 2014 (Local Time) from KALS Reporting Station
Clear Clear  
Wind Chill: -3°   Ceiling: Unl
Heat Index:   Visibility: 10mi
Dew Point:   Wind: 8mph
Humidity: 80%   Direction: 190°S
Pressure: 30.26"   Gusts: NA
Location:  37.1816°N, 106.262°W
Report Text: KALS 260852Z AUTO 19007KT 10SM CLR M13/M16 A3026 RMK AO2 SLP285 T11281156 53001
Loading
Personal Weather Stations






























Interactive Weather Map New forecast layout! Learn more

10-Day Weather Forecast

Advertisements
Track Severe Weather on mobile